Amr R — XUAX5 — position and weather

sailwx.info

Track history (hours):
 
Tides and Currents Weather Stations Pressure Air Temp Water Temp Dewpoint Dewpoint Depression Visibility Wind Speed Wind Dir Waves Ship Positions

Amr R

Last reported at 2014-Nov-24 08:33 UTC. Time now 2014-Nov-24 09:31 UTC.
Position N 44°35' E 037°54'.

Length 130 m; draft 5.9 m.

Type: Cargo ship. MMSI: 514427000.

Date/timePositionNaut miles runAvg speedWind from/ knotsBaromVisibWave heightAir tempDewpointWater temp
2014-Nov-24 08:33N 44°35' E 037°54'0 0.0
2014-Nov-24 07:33N 44°35' E 037°54'0 0.0
2014-Nov-24 06:33N 44°35' E 037°54'0 0.0
2014-Nov-24 05:33N 44°35' E 037°54'0 0.1
2014-Nov-24 04:33N 44°35' E 037°54'0 0.0
2014-Nov-23 21:13N 44°35' E 037°54'0 0.1
2014-Nov-23 20:33N 44°35' E 037°54'0 0.2
2014-Nov-23 19:34N 44°35' E 037°53'0 0.5
2014-Nov-23 18:33N 44°35' E 037°54'0 0.0
2014-Nov-23 17:33N 44°35' E 037°54'0 0.1
2014-Nov-23 16:33N 44°35' E 037°54'0 0.1
2014-Nov-23 15:33N 44°35' E 037°54'4 3.5
2014-Nov-23 14:33N 44°37' E 037°50'1 1.0
2014-Nov-23 13:33N 44°37' E 037°51'3 3.2
2014-Nov-23 12:33N 44°35' E 037°54'2 2.3
2014-Nov-23 11:32N 44°34' E 037°57'0 0.0
2014-Nov-23 10:32N 44°34' E 037°57'0 0.0
2014-Nov-23 09:32N 44°34' E 037°57'0 0.0
2014-Nov-23 08:29N 44°34' E 037°57'0 0.1
2014-Nov-23 07:32N 44°34' E 037°57'0 0.0
2014-Nov-23 06:32N 44°34' E 037°57'0 0.0
2014-Nov-23 05:32N 44°34' E 037°57'0 0.1
2014-Nov-23 04:32N 44°34' E 037°57'0 0.1
2014-Nov-23 03:32N 44°34' E 037°57'0 0.0
2014-Nov-23 02:32N 44°34' E 037°57'0 0.0
2014-Nov-23 01:32N 44°34' E 037°57'0 0.1
2014-Nov-23 00:32N 44°34' E 037°57'0 0.0
2014-Nov-22 23:32N 44°34' E 037°57'0 0.1
2014-Nov-22 22:32N 44°34' E 037°57'0 0.1
2014-Nov-22 21:29N 44°34' E 037°57'0 0.1
2014-Nov-22 20:32N 44°34' E 037°57'0 0.1
2014-Nov-22 19:32N 44°34' E 037°57'1 1.0
2014-Nov-22 18:32N 44°35' E 037°57'0 0.1
2014-Nov-22 17:29N 44°35' E 037°57'0 0.0
2014-Nov-22 16:32N 44°35' E 037°57'0 0.1
2014-Nov-22 15:32N 44°35' E 037°57'0 0.1
2014-Nov-22 14:32N 44°35' E 037°57'0 0.3
2014-Nov-22 13:32N 44°34' E 037°57'0 0.1
2014-Nov-22 12:32N 44°34' E 037°57'0 0.2
2014-Nov-22 11:32N 44°34' E 037°57'0 0.0
2014-Nov-22 10:32N 44°34' E 037°57'0 0.0
2014-Nov-22 09:32N 44°34' E 037°57'0 0.1
2014-Nov-22 08:32N 44°34' E 037°57'0 0.1
2014-Nov-22 07:33N 44°34' E 037°57'0 0.1
2014-Nov-22 06:31N 44°34' E 037°57'0 0.0
2014-Nov-22 05:10N 44°34' E 037°57'0 0.1
2014-Nov-22 04:28N 44°34' E 037°57'0 0.0
2014-Nov-22 03:31N 44°34' E 037°57'0 0.0
2014-Nov-22 02:31N 44°34' E 037°57'0 0.0
2014-Nov-22 01:31N 44°34' E 037°57'0 0.0
2014-Nov-22 00:31N 44°34' E 037°57'0 0.0
2014-Nov-21 23:31N 44°34' E 037°57'0 0.0
2014-Nov-21 22:31N 44°34' E 037°57'0 0.0
2014-Nov-21 21:31N 44°34' E 037°57'0 0.0
2014-Nov-21 20:31N 44°34' E 037°57'0 0.0
2014-Nov-21 19:31N 44°34' E 037°57'0 0.0
2014-Nov-21 18:31N 44°34' E 037°57'0 0.0
2014-Nov-21 17:31N 44°34' E 037°57'0 0.0
2014-Nov-20 11:28N 44°34' E 037°57'0 0.0
2014-Nov-20 10:31N 44°34' E 037°57'0 0.1
2014-Nov-20 09:31N 44°35' E 037°57'0 0.1
2014-Nov-20 08:31N 44°35' E 037°57'0 0.0
2014-Nov-20 07:31N 44°34' E 037°57'0 0.1
2014-Nov-20 06:31N 44°34' E 037°57'0 0.1
2014-Nov-20 05:31N 44°34' E 037°57'0 0.0
2014-Nov-20 04:31N 44°34' E 037°57'0 0.1
2014-Nov-20 03:28N 44°34' E 037°57'0 0.1
2014-Nov-20 02:28N 44°35' E 037°57'0 0.0
2014-Nov-20 01:31N 44°35' E 037°57'0 0.0
2014-Nov-20 00:31N 44°35' E 037°57'0 0.0
2014-Nov-19 23:31N 44°35' E 037°57'0 0.1
2014-Nov-19 22:31N 44°34' E 037°57'0 0.0
2014-Nov-19 21:22N 44°35' E 037°57'0 0.0
2014-Nov-19 20:31N 44°35' E 037°57'0 0.0
2014-Nov-19 19:31N 44°35' E 037°57'0 0.0
2014-Nov-19 18:31N 44°35' E 037°57'0 0.0
2014-Nov-19 17:31N 44°35' E 037°57'0 0.0
2014-Nov-19 16:31N 44°35' E 037°57'0 0.0
2014-Nov-19 15:28N 44°35' E 037°57'0 0.0
2014-Nov-19 14:31N 44°35' E 037°57'0 0.0
2014-Nov-19 13:25N 44°35' E 037°57'0 0.0
2014-Nov-19 12:31N 44°35' E 037°57'0 0.0
2014-Nov-19 11:31N 44°35' E 037°57'0 0.0
2014-Nov-19 10:33N 44°35' E 037°57'0 0.0
2014-Nov-19 09:33N 44°35' E 037°57'0 0.0
2014-Nov-19 08:33N 44°35' E 037°57'0 0.0
2014-Nov-19 07:33N 44°34' E 037°57'0 0.0
2014-Nov-19 06:33N 44°34' E 037°57'0 0.1
2014-Nov-19 05:30N 44°34' E 037°57'0 0.0
2014-Nov-19 04:33N 44°34' E 037°57'0 0.1
2014-Nov-19 03:33N 44°34' E 037°57'0 0.0
2014-Nov-19 02:31N 44°34' E 037°57'0 0.0
2014-Nov-19 01:31N 44°34' E 037°57'0 0.0
2014-Nov-19 00:28N 44°34' E 037°57'0 0.0
2014-Nov-18 23:31N 44°34' E 037°57'0 0.0
2014-Nov-18 22:31N 44°34' E 037°57'0 0.0
2014-Nov-18 21:25N 44°34' E 037°57'0 0.0
2014-Nov-18 20:31N 44°34' E 037°57'0 0.0
2014-Nov-18 19:31N 44°34' E 037°57'0 0.0
2014-Nov-18 18:31N 44°34' E 037°57'0 0.0
2014-Nov-18 17:28N 44°34' E 037°57'0 0.0
2014-Nov-18 16:31N 44°34' E 037°57'0 0.0
2014-Nov-18 15:31N 44°34' E 037°57'0 0.0
2014-Nov-18 14:31N 44°34' E 037°57'0 0.0
2014-Nov-18 13:31N 44°34' E 037°57'0 0.0
2014-Nov-18 12:31N 44°34' E 037°57'23 5.8
2014-Nov-18 08:33N 44°24' E 037°28'385 9.3
2014-Nov-16 15:07N 41°27' E 029°41'5 9.3
2014-Nov-16 14:34N 41°25' E 029°35'9 9.4
2014-Nov-16 13:33N 41°20' E 029°24'9 9.1
2014-Nov-16 12:32N 41°16' E 029°13'257 5.1
2014-Nov-14 10:33N 37°54' E 025°47'1310.1
2014-Nov-14 09:16N 37°41' E 025°51'  
Track history (hours):
 
Tides and Currents Weather Stations Pressure Air Temp Water Temp Dewpoint Dewpoint Depression Visibility Wind Speed Wind Dir Waves Ship Positions

Amr R

Last reported at 2014-Nov-24 08:33 UTC. Time now 2014-Nov-24 09:31 UTC.
Position N 44°35' E 037°54'.

Length 130 m; draft 5.9 m.

Type: Cargo ship. MMSI: 514427000.

Date/timePositionNaut miles runAvg speedWind from/ knotsBaromVisibWave heightAir tempDewpointWater temp
2014-Nov-24 08:33N 44°35' E 037°54'0 0.0
2014-Nov-24 07:33N 44°35' E 037°54'0 0.0
2014-Nov-24 06:33N 44°35' E 037°54'0 0.0
2014-Nov-24 05:33N 44°35' E 037°54'0 0.1
2014-Nov-24 04:33N 44°35' E 037°54'0 0.0
2014-Nov-23 21:13N 44°35' E 037°54'0 0.1
2014-Nov-23 20:33N 44°35' E 037°54'0 0.2
2014-Nov-23 19:34N 44°35' E 037°53'0 0.5
2014-Nov-23 18:33N 44°35' E 037°54'0 0.0
2014-Nov-23 17:33N 44°35' E 037°54'0 0.1
2014-Nov-23 16:33N 44°35' E 037°54'0 0.1
2014-Nov-23 15:33N 44°35' E 037°54'4 3.5
2014-Nov-23 14:33N 44°37' E 037°50'1 1.0
2014-Nov-23 13:33N 44°37' E 037°51'3 3.2
2014-Nov-23 12:33N 44°35' E 037°54'2 2.3
2014-Nov-23 11:32N 44°34' E 037°57'0 0.0
2014-Nov-23 10:32N 44°34' E 037°57'0 0.0
2014-Nov-23 09:32N 44°34' E 037°57'0 0.0
2014-Nov-23 08:29N 44°34' E 037°57'0 0.1
2014-Nov-23 07:32N 44°34' E 037°57'0 0.0
2014-Nov-23 06:32N 44°34' E 037°57'0 0.0
2014-Nov-23 05:32N 44°34' E 037°57'0 0.1
2014-Nov-23 04:32N 44°34' E 037°57'0 0.1
2014-Nov-23 03:32N 44°34' E 037°57'0 0.0
2014-Nov-23 02:32N 44°34' E 037°57'0 0.0
2014-Nov-23 01:32N 44°34' E 037°57'0 0.1
2014-Nov-23 00:32N 44°34' E 037°57'0 0.0
2014-Nov-22 23:32N 44°34' E 037°57'0 0.1
2014-Nov-22 22:32N 44°34' E 037°57'0 0.1
2014-Nov-22 21:29N 44°34' E 037°57'0 0.1
2014-Nov-22 20:32N 44°34' E 037°57'0 0.1
2014-Nov-22 19:32N 44°34' E 037°57'1 1.0
2014-Nov-22 18:32N 44°35' E 037°57'0 0.1
2014-Nov-22 17:29N 44°35' E 037°57'0 0.0
2014-Nov-22 16:32N 44°35' E 037°57'0 0.1
2014-Nov-22 15:32N 44°35' E 037°57'0 0.1
2014-Nov-22 14:32N 44°35' E 037°57'0 0.3
2014-Nov-22 13:32N 44°34' E 037°57'0 0.1
2014-Nov-22 12:32N 44°34' E 037°57'0 0.2
2014-Nov-22 11:32N 44°34' E 037°57'0 0.0
2014-Nov-22 10:32N 44°34' E 037°57'0 0.0
2014-Nov-22 09:32N 44°34' E 037°57'0 0.1
2014-Nov-22 08:32N 44°34' E 037°57'0 0.1
2014-Nov-22 07:33N 44°34' E 037°57'0 0.1
2014-Nov-22 06:31N 44°34' E 037°57'0 0.0
2014-Nov-22 05:10N 44°34' E 037°57'0 0.1
2014-Nov-22 04:28N 44°34' E 037°57'0 0.0
2014-Nov-22 03:31N 44°34' E 037°57'0 0.0
2014-Nov-22 02:31N 44°34' E 037°57'0 0.0
2014-Nov-22 01:31N 44°34' E 037°57'0 0.0
2014-Nov-22 00:31N 44°34' E 037°57'0 0.0
2014-Nov-21 23:31N 44°34' E 037°57'0 0.0
2014-Nov-21 22:31N 44°34' E 037°57'0 0.0
2014-Nov-21 21:31N 44°34' E 037°57'0 0.0
2014-Nov-21 20:31N 44°34' E 037°57'0 0.0
2014-Nov-21 19:31N 44°34' E 037°57'0 0.0
2014-Nov-21 18:31N 44°34' E 037°57'0 0.0
2014-Nov-21 17:31N 44°34' E 037°57'0 0.0
2014-Nov-20 11:28N 44°34' E 037°57'0 0.0
2014-Nov-20 10:31N 44°34' E 037°57'0 0.1
2014-Nov-20 09:31N 44°35' E 037°57'0 0.1
2014-Nov-20 08:31N 44°35' E 037°57'0 0.0
2014-Nov-20 07:31N 44°34' E 037°57'0 0.1
2014-Nov-20 06:31N 44°34' E 037°57'0 0.1
2014-Nov-20 05:31N 44°34' E 037°57'0 0.0
2014-Nov-20 04:31N 44°34' E 037°57'0 0.1
2014-Nov-20 03:28N 44°34' E 037°57'0 0.1
2014-Nov-20 02:28N 44°35' E 037°57'0 0.0
2014-Nov-20 01:31N 44°35' E 037°57'0 0.0
2014-Nov-20 00:31N 44°35' E 037°57'0 0.0
2014-Nov-19 23:31N 44°35' E 037°57'0 0.1
2014-Nov-19 22:31N 44°34' E 037°57'0 0.0
2014-Nov-19 21:22N 44°35' E 037°57'0 0.0
2014-Nov-19 20:31N 44°35' E 037°57'0 0.0
2014-Nov-19 19:31N 44°35' E 037°57'0 0.0
2014-Nov-19 18:31N 44°35' E 037°57'0 0.0
2014-Nov-19 17:31N 44°35' E 037°57'0 0.0
2014-Nov-19 16:31N 44°35' E 037°57'0 0.0
2014-Nov-19 15:28N 44°35' E 037°57'0 0.0
2014-Nov-19 14:31N 44°35' E 037°57'0 0.0
2014-Nov-19 13:25N 44°35' E 037°57'0 0.0
2014-Nov-19 12:31N 44°35' E 037°57'0 0.0
2014-Nov-19 11:31N 44°35' E 037°57'0 0.0
2014-Nov-19 10:33N 44°35' E 037°57'0 0.0
2014-Nov-19 09:33N 44°35' E 037°57'0 0.0
2014-Nov-19 08:33N 44°35' E 037°57'0 0.0
2014-Nov-19 07:33N 44°34' E 037°57'0 0.0
2014-Nov-19 06:33N 44°34' E 037°57'0 0.1
2014-Nov-19 05:30N 44°34' E 037°57'0 0.0
2014-Nov-19 04:33N 44°34' E 037°57'0 0.1
2014-Nov-19 03:33N 44°34' E 037°57'0 0.0
2014-Nov-19 02:31N 44°34' E 037°57'0 0.0
2014-Nov-19 01:31N 44°34' E 037°57'0 0.0
2014-Nov-19 00:28N 44°34' E 037°57'0 0.0
2014-Nov-18 23:31N 44°34' E 037°57'0 0.0
2014-Nov-18 22:31N 44°34' E 037°57'0 0.0
2014-Nov-18 21:25N 44°34' E 037°57'0 0.0
2014-Nov-18 20:31N 44°34' E 037°57'0 0.0
2014-Nov-18 19:31N 44°34' E 037°57'0 0.0
2014-Nov-18 18:31N 44°34' E 037°57'0 0.0
2014-Nov-18 17:28N 44°34' E 037°57'0 0.0
2014-Nov-18 16:31N 44°34' E 037°57'0 0.0
2014-Nov-18 15:31N 44°34' E 037°57'0 0.0
2014-Nov-18 14:31N 44°34' E 037°57'0 0.0
2014-Nov-18 13:31N 44°34' E 037°57'0 0.0
2014-Nov-18 12:31N 44°34' E 037°57'23 5.8
2014-Nov-18 08:33N 44°24' E 037°28'385 9.3
2014-Nov-16 15:07N 41°27' E 029°41'5 9.3
2014-Nov-16 14:34N 41°25' E 029°35'9 9.4
2014-Nov-16 13:33N 41°20' E 029°24'9 9.1
2014-Nov-16 12:32N 41°16' E 029°13'257 5.1
2014-Nov-14 10:33N 37°54' E 025°47'1310.1
2014-Nov-14 09:16N 37°41' E 025°51'  

Dump ship's entire track history